Time;durP1;ratioP1;P1;durP2;ratioP2;P2;SDS_P1;SDS_P2;PMS_P1;PMS_P2;Temp;Humidity;BMP_temperature;BMP_pressure;BME280_temperature;BME280_humidity;BME280_pressure;Samples;Min_cycle;Max_cycle;Signal;HPM_P1;HPM_P2
2021/06/16 00:00:28;;;;;;;4.45;2.25;;;;;;;14.60;76.82;101203.13;3552930;40;20397;-51
2021/06/16 00:02:55;;;;;;;5.82;2.20;;;;;;;14.50;77.24;101202.09;3552984;40;20046;-50
2021/06/16 00:05:26;;;;;;;4.47;2.20;;;;;;;14.57;76.82;101208.25;3553184;40;20066;-53
2021/06/16 00:07:53;;;;;;;4.45;2.47;;;;;;;14.34;77.15;101205.22;3552638;40;20418;-53
2021/06/16 00:10:25;;;;;;;5.20;2.53;;;;;;;14.44;76.57;101208.84;3553297;40;20252;-51
2021/06/16 00:12:52;;;;;;;2.53;2.03;;;;;;;14.56;76.30;101208.22;3553791;40;20332;-52
2021/06/16 00:15:26;;;;;;;4.95;1.95;;;;;;;14.41;76.75;101209.63;3555999;40;20052;-51
2021/06/16 00:17:53;;;;;;;3.92;1.92;;;;;;;14.36;76.60;101211.25;3552606;40;20102;-52
2021/06/16 00:20:20;;;;;;;4.32;2.30;;;;;;;14.10;78.60;101209.94;3552705;40;20064;-53
2021/06/16 00:22:47;;;;;;;4.55;2.20;;;;;;;14.06;78.23;101203.84;3552153;40;20441;-50
2021/06/16 00:25:15;;;;;;;3.28;2.30;;;;;;;14.14;78.19;101206.53;3551937;40;20054;-50
2021/06/16 00:27:42;;;;;;;5.22;1.88;;;;;;;14.01;78.48;101214.06;3555364;40;20063;-51
2021/06/16 00:30:10;;;;;;;4.03;2.20;;;;;;;14.05;78.36;101212.41;3552902;40;20057;-50
2021/06/16 00:32:39;;;;;;;2.55;2.17;;;;;;;13.97;78.49;101209.66;3552269;40;20173;-51
2021/06/16 00:35:07;;;;;;;4.65;2.00;;;;;;;13.87;78.61;101210.31;3552453;40;20067;-54
2021/06/16 00:37:36;;;;;;;4.85;2.00;;;;;;;14.01;77.07;101206.31;3553168;40;20102;-52
2021/06/16 00:40:06;;;;;;;3.47;2.20;;;;;;;13.90;76.60;101204.34;3556969;40;20076;-50
2021/06/16 00:42:33;;;;;;;6.40;1.77;;;;;;;13.90;75.76;101201.78;3552046;40;20128;-50
2021/06/16 00:45:00;;;;;;;3.10;1.88;;;;;;;13.72;76.11;101203.13;3553105;40;20093;-51
2021/06/16 00:47:27;;;;;;;4.65;2.25;;;;;;;13.61;76.17;101203.75;3553012;40;20336;-50
2021/06/16 00:49:54;;;;;;;2.50;1.67;;;;;;;13.79;74.98;101203.28;3552473;40;20082;-50
2021/06/16 00:52:21;;;;;;;3.53;2.10;;;;;;;13.57;76.16;101200.25;3552816;40;20110;-50
2021/06/16 00:54:48;;;;;;;3.13;1.70;;;;;;;13.44;76.66;101191.38;3551976;40;20057;-52
2021/06/16 00:57:16;;;;;;;3.22;1.98;;;;;;;13.38;76.74;101201.53;3552599;40;20101;-51
2021/06/16 01:00:00;;;;;;;4.43;2.10;;;;;;;13.41;76.23;101199.06;3551894;40;20088;-56
2021/06/16 01:02:32;;;;;;;6.05;2.00;;;;;;;13.38;76.12;101198.09;3552094;40;20052;-50
2021/06/16 01:05:01;;;;;;;3.85;1.88;;;;;;;13.24;77.15;101197.78;3552660;40;20403;-51
2021/06/16 01:07:33;;;;;;;3.22;1.80;;;;;;;13.21;77.55;101195.97;3552651;40;20050;-51
2021/06/16 01:10:04;;;;;;;2.25;1.55;;;;;;;13.44;76.50;101199.09;3552904;40;20064;-52
2021/06/16 01:12:41;;;;;;;2.75;1.60;;;;;;;13.26;77.84;101198.69;3552291;40;20392;-53
2021/06/16 01:15:17;;;;;;;3.78;1.95;;;;;;;13.05;78.09;101208.47;3549638;40;20050;-55
2021/06/16 01:17:49;;;;;;;3.08;2.13;;;;;;;13.03;78.64;101208.41;3551723;40;20082;-56
2021/06/16 01:20:41;;;;;;;1.83;1.70;;;;;;;12.92;79.03;101210.72;3551418;40;20153;-50
2021/06/16 01:23:07;;;;;;;4.72;2.33;;;;;;;13.06;78.81;101211.06;3552426;40;20181;-50
2021/06/16 01:25:58;;;;;;;5.07;2.40;;;;;;;12.91;80.28;101205.56;3551762;40;20102;-50
2021/06/16 01:28:31;;;;;;;7.43;2.13;;;;;;;12.95;80.10;101202.22;3551030;40;20045;-51
2021/06/16 01:30:59;;;;;;;6.40;2.00;;;;;;;12.80;80.03;101200.13;3552676;40;20090;-51
2021/06/16 01:33:26;;;;;;;4.82;2.00;;;;;;;12.79;80.63;101202.66;3542783;40;20046;-54
2021/06/16 01:35:55;;;;;;;3.13;1.95;;;;;;;12.63;80.78;101202.28;3552246;40;20046;-50
2021/06/16 01:38:23;;;;;;;4.25;2.22;;;;;;;12.66;81.38;101212.66;3552843;40;20045;-50
2021/06/16 01:40:54;;;;;;;4.18;2.33;;;;;;;12.57;80.98;101215.00;3553727;40;20056;-50
2021/06/16 01:43:23;;;;;;;6.00;2.08;;;;;;;12.60;80.90;101211.63;3554977;40;20126;-51
2021/06/16 01:45:51;;;;;;;3.65;1.90;;;;;;;12.59;81.55;101209.88;3553685;40;20062;-53
2021/06/16 01:48:21;;;;;;;4.57;2.30;;;;;;;12.53;80.82;101213.16;3552546;40;20056;-52
2021/06/16 01:50:51;;;;;;;4.85;2.30;;;;;;;12.75;80.33;101199.16;3555114;40;20074;-52
2021/06/16 01:53:20;;;;;;;4.10;1.98;;;;;;;12.65;79.57;101208.31;3553540;40;20073;-50
2021/06/16 01:55:48;;;;;;;4.90;1.92;;;;;;;12.54;80.69;101214.91;3551763;40;20082;-52
2021/06/16 01:58:17;;;;;;;5.00;1.90;;;;;;;12.62;80.07;101217.69;3555687;40;20042;-50
2021/06/16 02:00:45;;;;;;;3.13;2.28;;;;;;;12.53;79.99;101217.44;3551791;40;20117;-51
2021/06/16 02:03:13;;;;;;;3.65;2.03;;;;;;;12.35;80.61;101207.53;3549685;40;20058;-53
2021/06/16 02:05:40;;;;;;;5.65;2.10;;;;;;;12.33;81.00;101206.63;3550420;40;20074;-53
2021/06/16 02:08:12;;;;;;;3.00;2.15;;;;;;;12.52;80.64;101211.41;3552036;40;20446;-50
2021/06/16 02:10:45;;;;;;;3.53;2.10;;;;;;;12.40;80.79;101203.41;3550192;40;20086;-53
2021/06/16 02:13:14;;;;;;;5.75;2.05;;;;;;;12.27;80.75;101198.75;3553250;40;20089;-52
2021/06/16 02:15:50;;;;;;;4.03;2.20;;;;;;;12.17;81.78;101205.34;3551365;40;20097;-53
2021/06/16 02:18:20;;;;;;;5.10;2.40;;;;;;;12.26;81.69;101197.91;3550974;40;20088;-52
2021/06/16 02:20:47;;;;;;;4.88;2.28;;;;;;;12.17;82.41;101205.34;3551888;40;20614;-52
2021/06/16 02:23:15;;;;;;;4.70;2.33;;;;;;;12.07;82.40;101196.53;3552445;40;20050;-50
2021/06/16 02:25:43;;;;;;;5.38;2.25;;;;;;;12.07;82.67;101201.66;3551594;40;20097;-50
2021/06/16 02:28:10;;;;;;;7.70;3.17;;;;;;;12.01;83.33;101206.59;3552317;40;20101;-50
2021/06/16 02:30:37;;;;;;;5.80;2.50;;;;;;;11.95;83.86;101196.19;3555277;40;20560;-53
2021/06/16 02:33:04;;;;;;;5.82;2.40;;;;;;;11.93;83.89;101198.72;3552746;40;20085;-50
2021/06/16 02:35:31;;;;;;;3.80;2.00;;;;;;;11.90;84.49;101198.59;3553634;40;20365;-51
2021/06/16 02:38:04;;;;;;;6.93;2.53;;;;;;;11.87;85.45;101205.34;3553592;40;20262;-53
2021/06/16 02:40:33;;;;;;;6.20;2.45;;;;;;;11.85;85.77;101200.19;3551946;40;20066;-51
2021/06/16 02:43:01;;;;;;;4.55;3.33;;;;;;;11.83;86.37;101201.84;3552433;40;20088;-50
2021/06/16 02:45:28;;;;;;;5.65;3.90;;;;;;;11.86;87.02;101199.34;3551970;40;20053;-52
2021/06/16 02:47:59;;;;;;;6.20;2.92;;;;;;;11.79;87.03;101206.81;3552477;40;20350;-55
2021/06/16 02:50:28;;;;;;;5.72;2.80;;;;;;;11.80;87.53;101199.16;3554674;40;20057;-51
2021/06/16 02:53:01;;;;;;;6.32;2.70;;;;;;;11.84;87.45;101195.88;3552147;40;20052;-51
2021/06/16 02:55:29;;;;;;;3.63;3.03;;;;;;;11.71;87.94;101204.88;3551975;40;20048;-54
2021/06/16 02:57:57;;;;;;;5.68;2.70;;;;;;;11.68;88.04;101199.66;3551632;40;20067;-52
2021/06/16 03:00:25;;;;;;;4.50;2.70;;;;;;;11.67;88.25;101200.47;3551930;40;20252;-52
2021/06/16 03:02:53;;;;;;;4.50;2.58;;;;;;;11.71;88.49;101214.28;3551683;40;20192;-52
2021/06/16 03:05:23;;;;;;;4.80;2.33;;;;;;;11.62;88.69;101204.59;3551200;40;20094;-50
2021/06/16 03:07:53;;;;;;;4.45;2.80;;;;;;;11.65;88.82;101196.16;3551593;40;20392;-51
2021/06/16 03:10:22;;;;;;;4.90;2.75;;;;;;;11.72;88.34;101195.47;3551902;40;20050;-53
2021/06/16 03:12:56;;;;;;;6.10;2.83;;;;;;;11.81;88.51;101197.44;3551217;40;20359;-51
2021/06/16 03:15:25;;;;;;;4.57;2.25;;;;;;;12.12;87.06;101204.34;3552036;40;20087;-50
2021/06/16 03:17:54;;;;;;;3.05;2.40;;;;;;;12.11;87.05;101208.63;3551504;40;20091;-52
2021/06/16 03:20:24;;;;;;;4.13;2.40;;;;;;;12.14;86.47;101208.69;3542396;40;20060;-52
2021/06/16 03:22:54;;;;;;;4.70;2.67;;;;;;;12.18;86.86;101204.50;3551728;40;20140;-53
2021/06/16 03:25:22;;;;;;;5.25;2.40;;;;;;;12.22;86.63;101203.78;3554829;40;20085;-53
2021/06/16 03:27:51;;;;;;;3.83;2.53;;;;;;;12.24;85.78;101208.09;3551812;40;20113;-50
2021/06/16 03:30:22;;;;;;;3.33;2.85;;;;;;;12.35;85.49;101203.28;3551996;40;20124;-53
2021/06/16 03:32:52;;;;;;;8.10;2.75;;;;;;;11.94;86.45;101199.56;3550901;40;20112;-53
2021/06/16 03:35:20;;;;;;;5.25;2.58;;;;;;;11.89;85.80;101198.56;3551896;40;20143;-53
2021/06/16 03:37:49;;;;;;;7.97;2.65;;;;;;;12.01;86.41;101203.16;3551114;40;20363;-53
2021/06/16 03:40:17;;;;;;;4.00;2.50;;;;;;;12.03;85.60;101204.09;3551562;40;20349;-51
2021/06/16 03:42:45;;;;;;;5.65;2.50;;;;;;;12.11;86.14;101200.03;3550873;40;20113;-53
2021/06/16 03:45:12;;;;;;;5.72;2.28;;;;;;;12.17;85.61;101200.22;3549012;40;20056;-50
2021/06/16 03:47:43;;;;;;;7.07;2.80;;;;;;;12.05;85.41;101200.72;3550313;40;20109;-51
2021/06/16 03:50:15;;;;;;;5.93;2.60;;;;;;;12.45;84.82;101207.81;3548847;40;20050;-53
2021/06/16 03:52:43;;;;;;;3.78;2.65;;;;;;;12.52;85.39;101206.28;3550738;40;20293;-52
2021/06/16 03:55:12;;;;;;;4.05;2.42;;;;;;;12.26;83.99;101205.59;3551974;40;20054;-53
2021/06/16 03:57:40;;;;;;;6.00;2.33;;;;;;;12.72;83.29;101204.22;3549674;40;20552;-52
2021/06/16 04:00:08;;;;;;;5.28;2.08;;;;;;;12.63;82.99;101211.72;3548655;40;20115;-50
2021/06/16 04:02:36;;;;;;;4.45;2.20;;;;;;;12.36;82.99;101207.59;3550673;40;20050;-50
2021/06/16 04:05:06;;;;;;;2.80;2.45;;;;;;;12.42;83.38;101205.16;3552169;40;20338;-51
2021/06/16 04:07:35;;;;;;;5.40;2.80;;;;;;;12.65;82.47;101204.88;3546640;40;20074;-48
2021/06/16 04:10:06;;;;;;;4.20;2.50;;;;;;;12.97;81.56;101209.13;3558555;40;20046;-52
2021/06/16 04:12:34;;;;;;;2.10;1.90;;;;;;;12.95;79.78;101197.94;3550836;40;20068;-51
2021/06/16 04:15:02;;;;;;;3.15;2.40;;;;;;;12.74;81.61;101198.28;3551928;40;20069;-53
2021/06/16 04:17:29;;;;;;;4.35;2.40;;;;;;;12.60;81.75;101201.34;3546715;40;20058;-51
2021/06/16 04:19:57;;;;;;;4.15;2.08;;;;;;;12.78;81.07;101211.22;3551225;40;20583;-52
2021/06/16 04:22:24;;;;;;;7.35;3.00;;;;;;;12.71;81.33;101208.50;3551495;40;20140;-51
2021/06/16 04:24:51;;;;;;;3.30;2.28;;;;;;;12.84;80.60;101211.38;3553602;40;20085;-52
2021/06/16 04:27:18;;;;;;;7.03;2.58;;;;;;;12.91;81.39;101213.25;3553045;40;20074;-50
2021/06/16 04:29:45;;;;;;;2.33;2.00;;;;;;;13.03;80.55;101210.09;3552623;40;20090;-56
2021/06/16 04:32:14;;;;;;;4.68;2.60;;;;;;;13.09;79.67;101208.56;3550824;40;20487;-53
2021/06/16 04:34:41;;;;;;;5.72;2.45;;;;;;;13.49;78.73;101209.50;3551939;40;20098;-53
2021/06/16 04:37:09;;;;;;;4.57;2.38;;;;;;;13.25;78.63;101214.97;3552845;40;20038;-53
2021/06/16 04:39:37;;;;;;;3.63;2.20;;;;;;;13.38;78.75;101208.41;3552705;40;20073;-51
2021/06/16 04:42:05;;;;;;;3.50;1.90;;;;;;;13.62;79.20;101208.94;3543940;40;20062;-51
2021/06/16 04:44:33;;;;;;;2.90;2.40;;;;;;;13.63;78.55;101214.94;3553109;40;20124;-53
2021/06/16 04:47:02;;;;;;;2.75;1.90;;;;;;;13.70;77.63;101211.69;3554420;40;20041;-50
2021/06/16 04:49:31;;;;;;;3.33;2.30;;;;;;;13.74;77.03;101210.91;3548719;40;20078;-51
2021/06/16 04:51:58;;;;;;;3.67;2.17;;;;;;;13.84;76.67;101210.25;3552572;40;20082;-53
2021/06/16 04:54:25;;;;;;;2.17;1.65;;;;;;;14.19;74.82;101212.66;3552256;40;20401;-52
2021/06/16 04:56:52;;;;;;;3.92;2.22;;;;;;;14.02;74.67;101209.75;3551455;40;20444;-52
2021/06/16 04:59:19;;;;;;;4.13;1.88;;;;;;;14.07;75.51;101202.13;3551645;40;20054;-51
2021/06/16 05:01:46;;;;;;;3.30;2.35;;;;;;;14.12;76.13;101206.53;3551016;40;20090;-53
2021/06/16 05:04:13;;;;;;;4.22;2.28;;;;;;;14.12;73.01;101208.22;3550262;40;20053;-52
2021/06/16 05:06:40;;;;;;;4.38;2.10;;;;;;;14.24;73.12;101208.47;3550488;40;20065;-57
2021/06/16 05:09:07;;;;;;;4.55;2.08;;;;;;;14.41;72.92;101216.50;3552502;40;20071;-55
2021/06/16 05:11:34;;;;;;;4.55;2.05;;;;;;;14.46;73.00;101209.72;3552025;40;20467;-53
2021/06/16 05:14:01;;;;;;;2.78;1.73;;;;;;;15.11;70.61;101211.69;3553308;40;20056;-51
2021/06/16 05:16:28;;;;;;;2.65;1.75;;;;;;;15.09;70.12;101214.28;3552488;40;20050;-51
2021/06/16 05:18:57;;;;;;;4.93;1.55;;;;;;;15.45;69.93;101213.94;3552186;40;20483;-54
2021/06/16 05:21:28;;;;;;;5.47;1.50;;;;;;;15.33;69.22;101200.00;3552250;40;20050;-51
2021/06/16 05:26:29;;;;;;;6.18;1.92;;;;;;;15.75;68.22;101205.75;3547113;40;20085;-49
2021/06/16 05:28:56;;;;;;;2.70;1.70;;;;;;;15.44;67.00;101203.63;3543169;40;20061;-47
2021/06/16 05:31:23;;;;;;;4.07;1.73;;;;;;;15.79;66.13;101199.78;3540604;40;20082;-50
2021/06/16 05:33:50;;;;;;;6.00;2.28;;;;;;;15.85;68.78;101196.41;3542276;40;20053;-51
2021/06/16 05:36:17;;;;;;;9.05;2.35;;;;;;;15.99;67.94;101197.47;3550901;40;20296;-51
2021/06/16 05:38:45;;;;;;;12.65;1.60;;;;;;;15.71;65.44;101197.97;3553045;40;20069;-48
2021/06/16 05:41:13;;;;;;;4.38;2.00;;;;;;;16.18;65.51;101198.53;3542653;40;20109;-44
2021/06/16 05:43:43;;;;;;;3.78;1.90;;;;;;;16.50;65.37;101204.03;3543226;40;20132;-46
2021/06/16 05:46:14;;;;;;;4.72;1.90;;;;;;;16.07;64.03;101194.97;3544435;40;20121;-47
2021/06/16 05:48:47;;;;;;;5.13;2.05;;;;;;;16.13;63.13;101189.88;3541528;40;20050;-48
2021/06/16 05:51:15;;;;;;;5.75;2.15;;;;;;;16.04;63.51;101195.81;3547572;40;20057;-45
2021/06/16 05:53:42;;;;;;;5.13;1.58;;;;;;;16.21;63.48;101200.28;3547642;40;20072;-46
2021/06/16 05:56:09;;;;;;;5.05;2.03;;;;;;;16.27;63.04;101197.78;3542175;40;20050;-44
2021/06/16 05:58:36;;;;;;;6.15;1.70;;;;;;;16.45;62.60;101208.28;3542647;40;20087;-46
2021/06/16 06:01:04;;;;;;;4.70;1.70;;;;;;;16.69;61.74;101204.22;3546891;40;20090;-47
2021/06/16 06:03:31;;;;;;;6.63;1.85;;;;;;;16.59;59.86;101210.13;3542635;40;20080;-49
2021/06/16 06:05:58;;;;;;;3.33;1.52;;;;;;;16.86;60.53;101205.22;3541632;40;20065;-45
2021/06/16 06:08:26;;;;;;;4.25;1.67;;;;;;;17.09;60.72;101208.00;3542393;40;20086;-47
2021/06/16 06:10:57;;;;;;;4.97;1.90;;;;;;;17.08;59.44;101205.41;3542782;40;21101;-50
2021/06/16 06:13:24;;;;;;;5.53;1.58;;;;;;;17.46;59.90;101206.50;3542259;40;20403;-50
2021/06/16 06:15:52;;;;;;;5.15;1.92;;;;;;;17.53;55.99;101207.44;3543539;40;20057;-48
2021/06/16 06:18:19;;;;;;;4.40;1.75;;;;;;;17.85;57.30;101214.53;3541688;40;20062;-50
2021/06/16 06:20:47;;;;;;;5.05;1.67;;;;;;;18.01;57.52;101211.97;3539944;40;20056;-47
2021/06/16 06:23:14;;;;;;;2.90;1.50;;;;;;;18.22;57.94;101211.19;3544199;40;20086;-44
2021/06/16 06:25:41;;;;;;;2.03;1.40;;;;;;;18.31;55.18;101216.41;3547922;40;20078;-46
2021/06/16 06:28:08;;;;;;;4.95;1.48;;;;;;;18.35;56.52;101209.50;3552348;40;20347;-48
2021/06/16 06:30:35;;;;;;;2.75;1.08;;;;;;;18.40;53.96;101218.16;3552186;40;20098;-44
2021/06/16 06:33:04;;;;;;;5.60;1.42;;;;;;;18.64;53.95;101208.69;3552042;40;20089;-45
2021/06/16 06:35:31;;;;;;;3.50;1.40;;;;;;;18.86;54.16;101209.56;3560863;40;20405;-47
2021/06/16 06:37:58;;;;;;;5.55;1.42;;;;;;;19.00;53.05;101208.72;3562008;40;20085;-45
2021/06/16 06:40:26;;;;;;;5.30;1.58;;;;;;;19.16;54.00;101206.94;3562281;40;20077;-49
2021/06/16 06:42:54;;;;;;;3.30;1.63;;;;;;;19.32;52.74;101207.81;3561900;40;20387;-47
2021/06/16 06:45:21;;;;;;;5.00;1.73;;;;;;;19.40;52.51;101202.56;3562389;40;20057;-45
2021/06/16 06:47:48;;;;;;;5.78;2.00;;;;;;;19.45;53.37;101206.88;3562603;40;20064;-46
2021/06/16 06:50:16;;;;;;;3.90;1.30;;;;;;;19.67;51.47;101201.66;3560741;40;20052;-46
2021/06/16 06:52:47;;;;;;;3.88;1.13;;;;;;;19.53;53.67;101204.28;3562332;40;20057;-50
2021/06/16 06:55:17;;;;;;;3.92;1.38;;;;;;;20.00;51.32;101201.50;3560307;40;20072;-47
2021/06/16 06:57:45;;;;;;;3.47;1.25;;;;;;;19.95;52.63;101205.88;3562660;40;20057;-46
2021/06/16 07:00:14;;;;;;;9.63;1.73;;;;;;;20.42;52.77;101204.75;3563066;40;20049;-50
2021/06/16 07:02:45;;;;;;;4.15;1.15;;;;;;;20.56;52.29;101205.53;3562693;40;20045;-45
2021/06/16 07:05:13;;;;;;;2.63;1.40;;;;;;;20.82;51.76;101207.09;3562521;40;20061;-46
2021/06/16 07:07:41;;;;;;;2.00;1.02;;;;;;;20.95;49.67;101206.09;3562378;40;20068;-45
2021/06/16 07:10:10;;;;;;;5.75;1.50;;;;;;;21.07;50.76;101205.13;3562598;40;20056;-45
2021/06/16 07:12:39;;;;;;;6.38;1.52;;;;;;;21.09;49.33;101201.63;3562433;40;20069;-50
2021/06/16 07:15:08;;;;;;;5.70;1.20;;;;;;;21.27;48.25;101198.00;3561759;40;20057;-49
2021/06/16 07:17:36;;;;;;;3.70;1.55;;;;;;;21.67;49.30;101207.13;3562204;40;20065;-47
2021/06/16 07:20:06;;;;;;;3.08;1.40;;;;;;;21.86;48.01;101198.19;3562835;40;20432;-48
2021/06/16 07:22:34;;;;;;;5.90;1.83;;;;;;;22.10;46.71;101195.28;3563290;40;20053;-47
2021/06/16 07:25:02;;;;;;;4.07;1.55;;;;;;;22.25;45.75;101203.81;3562367;40;20402;-49
2021/06/16 07:27:30;;;;;;;8.52;1.48;;;;;;;22.43;45.93;101195.69;3562712;40;20061;-51
2021/06/16 07:29:57;;;;;;;5.65;1.55;;;;;;;22.81;45.38;101195.06;3561094;40;20403;-55
2021/06/16 07:32:58;;;;;;;3.25;1.20;;;;;;;23.03;45.10;101192.13;3561913;40;20303;-49
2021/06/16 07:35:29;;;;;;;2.72;1.15;;;;;;;23.32;44.51;101189.84;3560827;40;20061;-47
2021/06/16 07:37:56;;;;;;;2.55;1.30;;;;;;;23.38;44.03;101194.06;3561118;40;20069;-53
2021/06/16 07:40:24;;;;;;;2.72;1.30;;;;;;;23.38;43.53;101191.47;3559380;40;20057;-49
2021/06/16 07:42:51;;;;;;;3.70;1.73;;;;;;;23.61;42.40;101189.25;3561413;40;20106;-47
2021/06/16 07:45:18;;;;;;;3.03;1.30;;;;;;;23.61;43.65;101186.63;3561894;40;20057;-49
2021/06/16 07:47:46;;;;;;;3.47;1.65;;;;;;;24.06;41.95;101191.81;3562312;40;20532;-46
2021/06/16 07:50:14;;;;;;;3.72;1.63;;;;;;;24.31;41.94;101191.25;3562409;40;20049;-47
2021/06/16 07:52:41;;;;;;;4.15;1.48;;;;;;;24.38;42.14;101191.13;3562642;40;20089;-51
2021/06/16 07:55:09;;;;;;;5.38;1.55;;;;;;;24.58;41.92;101189.78;3565215;40;20053;-50
2021/06/16 07:57:36;;;;;;;4.20;1.40;;;;;;;24.30;42.24;101182.56;3564223;40;20085;-44
2021/06/16 08:00:04;;;;;;;4.32;1.42;;;;;;;24.63;41.21;101185.28;3561696;40;20062;-46
2021/06/16 08:02:33;;;;;;;3.67;1.42;;;;;;;24.46;40.86;101183.09;3562068;40;20060;-49
2021/06/16 08:05:00;;;;;;;3.85;1.33;;;;;;;24.37;41.84;101192.03;3562784;40;20352;-45
2021/06/16 08:07:27;;;;;;;4.05;1.42;;;;;;;25.53;40.14;101190.81;3563673;40;20068;-46
2021/06/16 08:09:54;;;;;;;3.50;1.65;;;;;;;25.29;40.38;101194.13;3563582;40;20061;-49
2021/06/16 08:12:21;;;;;;;4.22;1.60;;;;;;;24.92;40.09;101187.19;3562850;40;20091;-45
2021/06/16 08:14:49;;;;;;;1.90;1.45;;;;;;;25.82;40.22;101186.50;3563063;40;20146;-45
2021/06/16 08:17:16;;;;;;;4.18;1.52;;;;;;;26.77;37.05;101194.91;3563087;40;20053;-47
2021/06/16 08:19:51;;;;;;;3.35;1.33;;;;;;;26.42;37.83;101189.00;3563209;40;20065;-47
2021/06/16 08:22:20;;;;;;;4.15;1.63;;;;;;;26.75;36.60;101187.97;3560888;40;20053;-46
2021/06/16 08:24:47;;;;;;;4.82;2.13;;;;;;;26.09;38.09;101184.81;3561688;40;20075;-49
2021/06/16 08:27:15;;;;;;;2.83;1.42;;;;;;;25.42;38.04;101182.34;3563134;40;20052;-50
2021/06/16 08:29:42;;;;;;;1.73;1.38;;;;;;;25.64;38.97;101183.47;3563014;40;20053;-48
2021/06/16 08:32:10;;;;;;;4.13;1.67;;;;;;;25.20;39.70;101182.13;3562702;40;20139;-49
2021/06/16 08:34:37;;;;;;;5.53;1.85;;;;;;;25.38;39.31;101172.88;3551922;40;20080;-46
2021/06/16 08:37:05;;;;;;;2.63;1.70;;;;;;;25.84;38.76;101179.47;3562777;40;20053;-47
2021/06/16 08:39:37;;;;;;;2.75;1.48;;;;;;;25.71;38.24;101175.44;3563035;40;20053;-51
2021/06/16 08:42:06;;;;;;;3.85;1.58;;;;;;;25.30;40.33;101175.72;3563668;40;20049;-47
2021/06/16 08:44:34;;;;;;;5.32;1.30;;;;;;;24.82;39.84;101167.34;3563653;40;20159;-50
2021/06/16 08:47:04;;;;;;;3.40;1.65;;;;;;;24.30;41.01;101166.00;3561692;40;20085;-46
2021/06/16 08:49:32;;;;;;;4.38;1.83;;;;;;;24.50;40.70;101169.03;3560484;40;20099;-49
2021/06/16 08:51:59;;;;;;;4.82;1.63;;;;;;;25.00;41.13;101172.09;3562613;40;20056;-47
2021/06/16 08:54:26;;;;;;;6.22;1.67;;;;;;;24.26;41.99;101169.56;3563223;40;20077;-47
2021/06/16 08:56:56;;;;;;;3.25;1.45;;;;;;;24.58;42.76;101169.69;3563028;40;20415;-46
2021/06/16 08:59:24;;;;;;;4.65;1.80;;;;;;;24.84;41.55;101160.31;3552104;40;20048;-47
2021/06/16 09:01:53;;;;;;;4.28;1.70;;;;;;;25.12;40.24;101163.97;3561572;40;20143;-46
2021/06/16 09:04:46;;;;;;;4.78;1.35;;;;;;;24.30;41.60;101166.00;3562521;40;20077;-49
2021/06/16 09:07:16;;;;;;;4.65;2.08;;;;;;;24.23;41.59;101160.06;3562785;40;20041;-45
2021/06/16 09:09:47;;;;;;;2.22;1.80;;;;;;;24.60;41.10;101165.28;3562631;40;20064;-46
2021/06/16 09:12:31;;;;;;;3.45;1.30;;;;;;;24.32;40.79;101164.22;3563211;40;20049;-47
2021/06/16 09:15:00;;;;;;;4.35;1.85;;;;;;;24.63;40.91;101167.81;3562177;40;20438;-45
2021/06/16 09:17:27;;;;;;;6.13;2.13;;;;;;;24.19;40.29;101168.00;3563183;40;20061;-45
2021/06/16 09:20:00;;;;;;;2.40;2.15;;;;;;;25.06;39.93;101164.09;3563388;40;20049;-54
2021/06/16 09:22:31;;;;;;;3.78;1.70;;;;;;;25.05;39.95;101159.78;3563190;40;20061;-47
2021/06/16 09:25:02;;;;;;;4.97;1.60;;;;;;;26.05;38.28;101163.03;3562552;40;20438;-47
2021/06/16 09:27:46;;;;;;;2.95;1.35;;;;;;;26.57;36.81;101161.38;3563309;40;20060;-50
2021/06/16 09:30:19;;;;;;;3.53;1.70;;;;;;;25.18;36.97;101165.56;3562624;40;20117;-47
2021/06/16 09:32:51;;;;;;;3.03;1.70;;;;;;;25.83;37.64;101162.81;3562610;40;20069;-46
2021/06/16 09:35:29;;;;;;;2.95;1.80;;;;;;;26.59;36.62;101164.84;3550237;40;20426;-54
2021/06/16 09:37:59;;;;;;;3.47;1.50;;;;;;;26.69;35.22;101161.91;3561746;40;20077;-44
2021/06/16 09:40:29;;;;;;;2.80;1.60;;;;;;;26.80;36.71;101154.50;3562732;40;20346;-45
2021/06/16 09:42:59;;;;;;;8.15;1.80;;;;;;;26.44;36.09;101160.09;3565668;40;20076;-46
2021/06/16 09:45:28;;;;;;;4.65;2.00;;;;;;;26.54;36.22;101158.03;3564950;40;20159;-45
2021/06/16 09:47:55;;;;;;;4.90;1.50;;;;;;;26.68;34.75;101144.44;3562818;40;20053;-47
2021/06/16 09:50:24;;;;;;;2.95;1.45;;;;;;;26.27;35.51;101149.25;3561648;40;20045;-50
2021/06/16 09:52:52;;;;;;;3.45;1.70;;;;;;;25.92;36.39;101150.34;3561860;40;20061;-47
2021/06/16 09:55:23;;;;;;;3.10;1.70;;;;;;;26.34;35.77;101148.13;3561514;40;20356;-47
2021/06/16 09:58:10;;;;;;;5.15;1.67;;;;;;;26.77;35.19;101137.09;3560924;40;20061;-45
2021/06/16 10:00:46;;;;;;;4.78;1.80;;;;;;;28.10;32.10;101134.81;3556095;40;20116;-49
2021/06/16 10:03:23;;;;;;;3.17;1.83;;;;;;;28.11;31.60;101133.88;3562282;40;20037;-46
2021/06/16 10:06:16;;;;;;;3.55;1.63;;;;;;;28.06;32.24;101125.31;3561294;40;20338;-45
2021/06/16 10:08:44;;;;;;;2.80;1.70;;;;;;;27.44;32.88;101123.28;3562023;40;20045;-49
2021/06/16 10:11:20;;;;;;;3.92;1.63;;;;;;;29.03;30.46;101132.69;3562816;40;20065;-48
2021/06/16 10:13:48;;;;;;;3.08;1.60;;;;;;;29.46;29.90;101133.38;3562295;40;20424;-50
2021/06/16 10:16:16;;;;;;;3.28;2.10;;;;;;;30.20;28.90;101128.16;3562734;40;20049;-48
2021/06/16 10:18:44;;;;;;;2.95;1.67;;;;;;;31.29;28.35;101123.44;3561877;40;20065;-44
2021/06/16 10:21:15;;;;;;;2.75;1.33;;;;;;;34.29;23.97;101131.91;3561928;40;20057;-46
2021/06/16 10:23:43;;;;;;;5.15;1.65;;;;;;;33.25;23.82;101125.34;3562473;40;20049;-45
2021/06/16 10:26:27;;;;;;;3.83;1.70;;;;;;;31.51;26.02;101124.91;3562218;40;20045;-48
2021/06/16 10:29:02;;;;;;;2.00;1.48;;;;;;;34.89;22.67;101130.53;3562547;40;20139;-45
2021/06/16 10:31:39;;;;;;;3.42;1.90;;;;;;;37.66;19.57;101133.72;3562206;40;20064;-48
2021/06/16 10:34:07;;;;;;;2.28;1.70;;;;;;;35.47;22.18;101129.13;3562129;40;20034;-48
2021/06/16 10:36:36;;;;;;;3.15;1.85;;;;;;;34.94;22.66;101126.63;3562824;40;20429;-46
2021/06/16 10:39:07;;;;;;;3.75;1.63;;;;;;;35.28;22.00;101116.25;3562908;40;20057;-46
2021/06/16 10:41:37;;;;;;;2.92;1.90;;;;;;;35.75;21.48;101124.47;3562226;40;20057;-48
2021/06/16 10:44:19;;;;;;;2.72;1.50;;;;;;;35.53;21.74;101119.84;3562619;40;20078;-51
2021/06/16 10:47:08;;;;;;;4.50;1.95;;;;;;;37.91;20.02;101130.78;3563081;40;20073;-49
2021/06/16 10:49:46;;;;;;;3.00;1.50;;;;;;;37.82;19.71;101128.84;3561138;40;20053;-49
2021/06/16 10:52:16;;;;;;;4.15;1.83;;;;;;;36.59;20.43;101119.00;3560042;40;20091;-51
2021/06/16 10:55:03;;;;;;;2.75;1.67;;;;;;;38.11;19.39;101114.91;3564736;40;20064;-49
2021/06/16 10:57:32;;;;;;;3.58;1.77;;;;;;;40.46;17.13;101125.31;3561131;40;20045;-50
2021/06/16 11:00:08;;;;;;;4.75;2.15;;;;;;;37.03;20.76;101113.88;3563056;40;20057;-48
2021/06/16 11:02:38;;;;;;;3.08;1.60;;;;;;;34.54;22.45;101106.38;3563216;40;20041;-50
2021/06/16 11:05:26;;;;;;;2.95;1.88;;;;;;;36.71;20.41;101106.56;3561984;40;20081;-47
2021/06/16 11:07:54;;;;;;;2.92;1.77;;;;;;;37.52;19.18;101107.28;3561656;40;20825;-49
2021/06/16 11:10:23;;;;;;;2.67;1.88;;;;;;;35.40;21.56;101098.53;3562664;40;20089;-48
2021/06/16 11:12:53;;;;;;;4.60;1.83;;;;;;;36.00;21.50;101105.69;3562762;40;20066;-48
2021/06/16 11:15:23;;;;;;;2.63;1.40;;;;;;;37.93;20.25;101109.25;3559588;40;20046;-49
2021/06/16 11:17:53;;;;;;;4.18;1.98;;;;;;;39.60;17.54;101105.50;3563730;40;20052;-47
2021/06/16 11:20:36;;;;;;;4.65;1.95;;;;;;;39.06;17.74;101104.94;3564565;40;20085;-49
2021/06/16 11:23:07;;;;;;;3.05;1.80;;;;;;;40.39;16.33;101100.03;3561820;40;20052;-48
2021/06/16 11:28:15;;;;;;;2.47;2.13;;;;;;;35.81;20.57;101079.53;3550656;40;20049;-51
2021/06/16 11:30:55;;;;;;;2.72;1.65;;;;;;;39.41;17.89;101093.78;3560384;40;20051;-52
2021/06/16 11:33:26;;;;;;;4.43;2.05;;;;;;;36.87;20.20;101074.16;3560644;40;20060;-54
2021/06/16 11:35:58;;;;;;;3.30;1.77;;;;;;;37.40;19.84;101088.63;3555325;40;20106;-55
2021/06/16 11:38:32;;;;;;;4.93;1.90;;;;;;;37.11;20.78;101082.06;3557145;40;20054;-52
2021/06/16 11:41:17;;;;;;;5.43;2.40;;;;;;;41.62;15.54;101094.44;3556939;40;20518;-55